Time;durP1;ratioP1;P1;durP2;ratioP2;P2;SDS_P1;SDS_P2;PMS_P1;PMS_P2;Temp;Humidity;BMP_temperature;BMP_pressure;BME280_temperature;BME280_humidity;BME280_pressure;Samples;Min_cycle;Max_cycle;Signal;HPM_P1;HPM_P2
2023/04/25 00:01:12;;;;;;;10.30;5.57;;;8.50;99.90;;;;;;5012162;28;20524;-79
2023/04/25 00:03:38;;;;;;;9.57;5.33;;;8.50;99.90;;;;;;4994246;28;20445;-78
2023/04/25 00:06:04;;;;;;;11.33;5.60;;;8.50;99.90;;;;;;5011268;28;20472;-79
2023/04/25 00:08:30;;;;;;;11.80;5.60;;;8.50;99.90;;;;;;5025317;28;20470;-79
2023/04/25 00:10:57;;;;;;;10.90;4.87;;;8.50;99.90;;;;;;5016179;28;20963;-78
2023/04/25 00:13:23;;;;;;;11.43;5.77;;;8.50;99.90;;;;;;5016304;28;20199;-78
2023/04/25 00:15:48;;;;;;;9.50;5.40;;;8.50;99.90;;;;;;5014755;28;20524;-78
2023/04/25 00:18:15;;;;;;;7.83;5.50;;;8.50;99.90;;;;;;5014309;28;20517;-79
2023/04/25 00:20:46;;;;;;;11.03;6.13;;;8.60;99.90;;;;;;5015861;28;20218;-78
2023/04/25 00:23:17;;;;;;;7.10;5.03;;;8.60;99.90;;;;;;5018607;28;20426;-78
2023/04/25 00:25:44;;;;;;;9.40;5.13;;;8.60;99.90;;;;;;5030517;28;20491;-77
2023/04/25 00:28:10;;;;;;;7.30;5.17;;;8.60;99.90;;;;;;5023769;28;20601;-78
2023/04/25 00:30:36;;;;;;;13.60;5.30;;;8.60;99.90;;;;;;5014191;28;20766;-77
2023/04/25 00:33:02;;;;;;;7.23;5.03;;;8.60;99.90;;;;;;5012812;28;20496;-79
2023/04/25 00:35:28;;;;;;;9.23;5.40;;;8.60;99.90;;;;;;4996982;28;20256;-78
2023/04/25 00:37:54;;;;;;;8.20;4.90;;;8.70;99.90;;;;;;5016921;28;20206;-78
2023/04/25 00:40:20;;;;;;;10.30;5.90;;;8.70;99.90;;;;;;5013874;28;20267;-79
2023/04/25 00:42:46;;;;;;;10.97;5.63;;;8.60;99.90;;;;;;5006752;28;20454;-79
2023/04/25 00:45:15;;;;;;;7.77;5.57;;;8.70;99.90;;;;;;4992674;28;20184;-79
2023/04/25 00:47:41;;;;;;;12.03;4.83;;;8.60;99.90;;;;;;4993022;28;20463;-79
2023/04/25 00:50:08;;;;;;;7.70;5.93;;;8.60;99.90;;;;;;4993294;28;20434;-78
2023/04/25 00:52:34;;;;;;;14.60;6.30;;;8.60;99.90;;;;;;4992316;28;20445;-79
2023/04/25 00:55:00;;;;;;;9.00;6.00;;;8.70;99.90;;;;;;4992085;28;20450;-78
2023/04/25 00:57:26;;;;;;;11.90;6.03;;;8.70;99.90;;;;;;4993132;28;20441;-77
2023/04/25 00:59:53;;;;;;;7.47;5.23;;;8.70;99.90;;;;;;4993481;28;20479;-79
2023/04/25 01:02:20;;;;;;;10.30;5.97;;;8.70;99.90;;;;;;4993251;28;20438;-78
2023/04/25 01:04:47;;;;;;;12.10;6.00;;;8.70;99.90;;;;;;4993397;28;20913;-78
2023/04/25 01:07:13;;;;;;;9.30;6.10;;;8.70;99.90;;;;;;5007860;28;20565;-79
2023/04/25 01:09:39;;;;;;;9.93;6.60;;;8.60;99.90;;;;;;4991877;28;20419;-78
2023/04/25 01:12:05;;;;;;;12.03;6.37;;;8.70;99.90;;;;;;5008299;28;20442;-78
2023/04/25 01:14:31;;;;;;;7.90;6.57;;;8.60;99.90;;;;;;4991492;28;20415;-78
2023/04/25 01:16:59;;;;;;;9.97;7.20;;;8.70;99.90;;;;;;4992802;28;20481;-79
2023/04/25 01:19:25;;;;;;;12.93;6.70;;;8.60;99.90;;;;;;5008450;28;20458;-78
2023/04/25 01:21:51;;;;;;;13.33;6.87;;;8.70;99.90;;;;;;5008409;28;20453;-78
2023/04/25 01:24:17;;;;;;;10.87;6.40;;;8.70;99.90;;;;;;5012337;28;20410;-78
2023/04/25 01:26:49;;;;;;;10.63;6.63;;;8.70;99.90;;;;;;5011178;28;20186;-78
2023/04/25 01:29:19;;;;;;;11.77;6.40;;;8.70;99.90;;;;;;5012562;28;20171;-78
2023/04/25 01:31:46;;;;;;;11.93;7.10;;;8.70;99.90;;;;;;5012547;28;20518;-77
2023/04/25 01:34:12;;;;;;;7.07;5.70;;;8.70;99.90;;;;;;5010898;28;20418;-79
2023/04/25 01:36:39;;;;;;;8.43;7.03;;;8.70;99.90;;;;;;5010963;28;20442;-78
2023/04/25 01:39:04;;;;;;;11.27;7.80;;;8.70;99.90;;;;;;5012280;28;20865;-79
2023/04/25 01:41:31;;;;;;;11.73;8.00;;;8.80;99.90;;;;;;5011118;28;20544;-78
2023/04/25 01:43:56;;;;;;;9.50;8.07;;;8.80;99.90;;;;;;5012122;28;20194;-77
2023/04/25 01:46:22;;;;;;;12.87;7.03;;;8.80;99.90;;;;;;5012535;28;20426;-78
2023/04/25 01:48:48;;;;;;;11.10;7.17;;;8.70;99.90;;;;;;5012162;28;20270;-79
2023/04/25 01:51:15;;;;;;;12.70;6.97;;;8.70;99.90;;;;;;5012473;28;20770;-78
2023/04/25 01:53:40;;;;;;;9.43;6.70;;;8.70;99.90;;;;;;5013190;28;20175;-79
2023/04/25 01:56:07;;;;;;;9.00;6.07;;;8.70;99.90;;;;;;5017814;28;20956;-78
2023/04/25 01:58:32;;;;;;;11.43;6.30;;;8.80;99.90;;;;;;5013023;28;20503;-78
2023/04/25 02:00:58;;;;;;;10.93;6.60;;;8.80;99.90;;;;;;5013012;28;20429;-79
2023/04/25 02:03:24;;;;;;;10.60;6.93;;;8.80;99.90;;;;;;5027271;28;20183;-78
2023/04/25 02:05:49;;;;;;;13.50;7.40;;;8.70;99.90;;;;;;5012331;28;20289;-78
2023/04/25 02:08:17;;;;;;;12.17;7.20;;;8.70;99.90;;;;;;5011895;28;20234;-79
2023/04/25 02:10:43;;;;;;;14.40;7.20;;;8.70;99.90;;;;;;5012026;28;20234;-79
2023/04/25 02:13:09;;;;;;;9.50;7.20;;;8.70;99.90;;;;;;5011865;28;20433;-79
2023/04/25 02:15:35;;;;;;;9.90;7.20;;;8.70;99.90;;;;;;5012546;28;20824;-77
2023/04/25 02:18:00;;;;;;;15.60;7.73;;;8.70;99.90;;;;;;5011787;28;20187;-78
2023/04/25 02:20:27;;;;;;;11.60;7.80;;;8.70;99.90;;;;;;5007557;28;20427;-79
2023/04/25 02:22:53;;;;;;;8.23;7.23;;;8.70;99.90;;;;;;4992084;28;20716;-79
2023/04/25 02:25:21;;;;;;;10.97;7.50;;;8.70;99.90;;;;;;4992027;28;20478;-79
2023/04/25 02:27:48;;;;;;;13.97;7.60;;;8.70;99.90;;;;;;5007267;28;20219;-79
2023/04/25 02:30:14;;;;;;;15.43;8.30;;;8.60;99.90;;;;;;5007472;28;20453;-78
2023/04/25 02:32:40;;;;;;;10.10;6.93;;;8.70;99.90;;;;;;4991182;28;20423;-79
2023/04/25 02:35:07;;;;;;;10.77;7.23;;;8.70;99.90;;;;;;4992086;28;20427;-79
2023/04/25 02:37:34;;;;;;;8.60;6.70;;;8.60;99.90;;;;;;4991925;28;20530;-79
2023/04/25 02:40:00;;;;;;;11.80;7.07;;;8.70;99.90;;;;;;4992023;28;20431;-78
2023/04/25 02:42:26;;;;;;;11.50;7.60;;;8.70;99.90;;;;;;5009009;28;20468;-78
2023/04/25 02:44:52;;;;;;;10.03;7.57;;;8.80;99.90;;;;;;5011419;28;20437;-79
2023/04/25 02:47:18;;;;;;;11.57;7.17;;;8.70;99.90;;;;;;5011124;28;20462;-78
2023/04/25 02:49:43;;;;;;;10.53;7.00;;;8.70;99.90;;;;;;5011458;28;20717;-77
2023/04/25 02:52:09;;;;;;;15.83;6.63;;;8.70;99.90;;;;;;5011735;28;20210;-78
2023/04/25 02:54:34;;;;;;;12.93;8.23;;;8.70;99.90;;;;;;5010457;28;20258;-79
2023/04/25 02:57:02;;;;;;;11.60;6.93;;;8.60;99.90;;;;;;5026624;28;20210;-79
2023/04/25 02:59:28;;;;;;;11.17;6.80;;;8.70;99.90;;;;;;5011176;28;20171;-79
2023/04/25 03:01:53;;;;;;;11.47;6.03;;;8.60;99.90;;;;;;5011691;28;20472;-78
2023/04/25 03:04:20;;;;;;;7.60;5.53;;;8.70;99.90;;;;;;5011151;28;20858;-78
2023/04/25 03:06:46;;;;;;;10.70;5.90;;;8.70;99.90;;;;;;5011138;28;20183;-78
2023/04/25 03:09:12;;;;;;;8.23;5.23;;;8.70;99.90;;;;;;5011135;28;20434;-79
2023/04/25 03:11:39;;;;;;;12.13;5.87;;;8.70;99.90;;;;;;5010041;28;20543;-79
2023/04/25 03:14:05;;;;;;;8.07;5.57;;;8.60;99.90;;;;;;5010885;28;20191;-78
2023/04/25 03:16:30;;;;;;;13.00;6.00;;;8.70;99.90;;;;;;5010040;28;20457;-79
2023/04/25 03:18:56;;;;;;;11.50;5.30;;;8.60;99.90;;;;;;5009898;28;20871;-78
2023/04/25 03:21:22;;;;;;;9.03;5.30;;;8.60;99.90;;;;;;4999268;28;20235;-78
2023/04/25 03:23:48;;;;;;;9.47;5.60;;;8.60;99.90;;;;;;4989825;28;20427;-79
2023/04/25 03:26:14;;;;;;;9.73;6.40;;;8.60;99.90;;;;;;4990603;28;20415;-78
2023/04/25 03:28:40;;;;;;;10.53;6.07;;;8.60;99.90;;;;;;4993849;28;20212;-77
2023/04/25 03:31:05;;;;;;;8.87;5.83;;;8.50;99.90;;;;;;4997018;28;20204;-77
2023/04/25 03:33:31;;;;;;;12.93;5.70;;;8.50;99.90;;;;;;4998549;28;20199;-77
2023/04/25 03:35:57;;;;;;;11.27;6.10;;;8.50;99.90;;;;;;4999026;28;20415;-77
2023/04/25 03:38:23;;;;;;;9.40;5.77;;;8.50;99.90;;;;;;4997479;28;20741;-78
2023/04/25 03:40:50;;;;;;;8.20;5.77;;;8.50;99.90;;;;;;5003304;28;20217;-78
2023/04/25 03:43:16;;;;;;;13.60;6.00;;;8.40;99.90;;;;;;5017441;28;20187;-77
2023/04/25 03:45:42;;;;;;;7.03;6.03;;;8.60;99.90;;;;;;5017271;28;20489;-77
2023/04/25 03:48:07;;;;;;;10.97;5.90;;;8.60;99.90;;;;;;5017402;28;20214;-78
2023/04/25 03:50:33;;;;;;;9.83;6.30;;;8.60;99.90;;;;;;5000560;28;20668;-78
2023/04/25 03:52:59;;;;;;;13.07;6.30;;;8.60;99.90;;;;;;5016383;28;20178;-77
2023/04/25 03:55:24;;;;;;;10.70;6.33;;;8.60;99.90;;;;;;5033152;28;20666;-78
2023/04/25 03:57:50;;;;;;;15.67;7.73;;;8.60;99.90;;;;;;5016790;28;20175;-76
2023/04/25 04:00:16;;;;;;;8.60;4.90;;;8.50;99.90;;;;;;5016620;28;20183;-78
2023/04/25 04:02:42;;;;;;;14.33;6.73;;;8.50;99.90;;;;;;5017192;28;20242;-77
2023/04/25 04:05:08;;;;;;;12.30;6.90;;;8.50;99.90;;;;;;5016473;28;20426;-77
2023/04/25 04:07:39;;;;;;;14.90;7.30;;;8.50;99.90;;;;;;5000197;28;20476;-77
2023/04/25 04:10:11;;;;;;;8.33;6.10;;;8.50;99.90;;;;;;5016882;28;20187;-77
2023/04/25 04:12:37;;;;;;;12.63;6.43;;;8.50;99.90;;;;;;5031675;28;20418;-77
2023/04/25 04:15:05;;;;;;;11.33;7.10;;;8.50;99.90;;;;;;5015652;28;20418;-77
2023/04/25 04:17:31;;;;;;;9.07;5.80;;;8.50;99.90;;;;;;5016715;28;20414;-78
2023/04/25 04:19:57;;;;;;;5.90;3.60;;;8.50;99.90;;;;;;5019952;28;20851;-77
2023/04/25 04:22:24;;;;;;;5.70;3.70;;;8.40;99.90;;;;;;4999703;28;20470;-78
2023/04/25 04:24:50;;;;;;;5.83;2.80;;;8.40;99.90;;;;;;5002093;28;20437;-77
2023/04/25 04:27:17;;;;;;;9.00;3.17;;;8.30;99.90;;;;;;5002352;28;20531;-77
2023/04/25 04:29:43;;;;;;;6.13;3.30;;;8.20;99.90;;;;;;5001580;28;20421;-78
2023/04/25 04:32:09;;;;;;;5.37;3.20;;;8.30;99.90;;;;;;5002065;28;20939;-78
2023/04/25 04:34:35;;;;;;;9.17;3.23;;;8.30;99.90;;;;;;5002275;28;20407;-78
2023/04/25 04:37:01;;;;;;;7.50;3.53;;;8.20;99.90;;;;;;5017096;28;20190;-77
2023/04/25 04:39:27;;;;;;;4.73;3.00;;;8.20;99.90;;;;;;4998498;28;20791;-78
2023/04/25 04:41:53;;;;;;;6.10;3.03;;;8.20;99.90;;;;;;5013022;28;20441;-77
2023/04/25 04:44:19;;;;;;;7.60;2.83;;;8.10;99.90;;;;;;5018489;28;20421;-77
2023/04/25 04:46:46;;;;;;;8.50;3.20;;;8.10;99.90;;;;;;5018376;28;20444;-77
2023/04/25 04:49:13;;;;;;;6.57;3.73;;;8.10;99.90;;;;;;5019742;28;20475;-77
2023/04/25 04:51:40;;;;;;;7.10;3.07;;;8.10;99.90;;;;;;5018850;28;20434;-77
2023/04/25 04:54:06;;;;;;;10.60;3.30;;;8.10;99.90;;;;;;5018161;28;20497;-78
2023/04/25 04:56:32;;;;;;;5.70;3.20;;;8.10;99.90;;;;;;5009884;28;20549;-77
2023/04/25 04:58:58;;;;;;;7.87;3.70;;;8.10;99.90;;;;;;5012743;28;20194;-76
2023/04/25 05:01:24;;;;;;;9.47;3.53;;;8.10;99.90;;;;;;5014302;28;20442;-76
2023/04/25 05:03:51;;;;;;;5.90;3.50;;;8.10;99.90;;;;;;5011175;28;20576;-76
2023/04/25 05:06:18;;;;;;;7.47;3.83;;;8.10;99.90;;;;;;5011289;28;20430;-78
2023/04/25 05:08:44;;;;;;;7.90;4.00;;;8.00;99.90;;;;;;5028213;28;20456;-78
2023/04/25 05:11:10;;;;;;;12.50;4.20;;;8.00;99.90;;;;;;5037809;28;20443;-78
2023/04/25 05:13:36;;;;;;;8.40;3.70;;;8.00;99.90;;;;;;5037824;28;20433;-78
2023/04/25 05:16:02;;;;;;;5.90;3.77;;;8.10;99.90;;;;;;5024838;28;20433;-77
2023/04/25 05:18:28;;;;;;;9.83;4.80;;;7.90;99.90;;;;;;5027120;28;20217;-77
2023/04/25 05:20:53;;;;;;;10.90;4.90;;;8.00;99.90;;;;;;5005911;28;20294;-78
2023/04/25 05:23:19;;;;;;;7.53;3.73;;;7.90;99.90;;;;;;5018711;28;20194;-77
2023/04/25 05:25:45;;;;;;;10.70;4.17;;;8.00;99.90;;;;;;5018662;28;20203;-78
2023/04/25 05:28:13;;;;;;;5.37;3.77;;;7.90;99.90;;;;;;5026106;28;20718;-78
2023/04/25 05:30:39;;;;;;;9.53;4.53;;;7.90;99.90;;;;;;5027448;28;20194;-78
2023/04/25 05:33:05;;;;;;;10.20;4.00;;;7.90;99.90;;;;;;5035305;28;20416;-78
2023/04/25 05:35:31;;;;;;;10.03;4.40;;;7.90;99.90;;;;;;5035020;28;20413;-78
2023/04/25 05:37:56;;;;;;;11.53;4.57;;;7.90;99.90;;;;;;5004235;28;20199;-77
2023/04/25 05:40:22;;;;;;;5.40;4.33;;;8.00;99.90;;;;;;5015015;28;20230;-78
2023/04/25 05:42:48;;;;;;;9.70;4.50;;;8.10;99.90;;;;;;5015239;28;20183;-77
2023/04/25 05:45:13;;;;;;;8.97;5.50;;;8.00;99.90;;;;;;5014683;28;20190;-77
2023/04/25 05:47:39;;;;;;;10.00;5.40;;;8.00;99.90;;;;;;5018209;28;20219;-77
2023/04/25 05:50:06;;;;;;;11.80;5.73;;;8.10;99.90;;;;;;5019116;28;20648;-78
2023/04/25 05:52:31;;;;;;;8.17;6.30;;;8.10;99.90;;;;;;5038687;28;20206;-77
2023/04/25 05:54:57;;;;;;;13.50;5.90;;;8.10;99.90;;;;;;5020930;28;20453;-77
2023/04/25 05:57:26;;;;;;;7.90;6.13;;;8.10;99.90;;;;;;5014732;28;20194;-77
2023/04/25 05:59:53;;;;;;;10.40;6.30;;;8.20;99.90;;;;;;5015202;28;20541;-78
2023/04/25 06:02:20;;;;;;;13.33;6.90;;;8.20;99.90;;;;;;5029090;28;20465;-78
2023/04/25 06:04:46;;;;;;;10.23;6.63;;;8.30;99.90;;;;;;5009077;28;20453;-77
2023/04/25 06:07:12;;;;;;;19.73;6.73;;;8.30;99.90;;;;;;5020348;28;20465;-77
2023/04/25 06:09:38;;;;;;;23.77;7.70;;;8.30;99.90;;;;;;5013436;28;20800;-77
2023/04/25 06:12:05;;;;;;;11.13;6.47;;;8.30;99.90;;;;;;5006944;28;20231;-76
2023/04/25 06:14:31;;;;;;;10.63;6.43;;;8.40;99.90;;;;;;5009863;28;20434;-78
2023/04/25 06:16:56;;;;;;;10.57;5.60;;;8.50;99.90;;;;;;5021992;28;20892;-78
2023/04/25 06:19:22;;;;;;;9.50;5.40;;;8.50;99.90;;;;;;5050291;28;20587;-77
2023/04/25 06:21:48;;;;;;;11.50;6.97;;;8.60;99.90;;;;;;5020426;28;20214;-78
2023/04/25 06:24:13;;;;;;;17.53;7.10;;;8.60;99.90;;;;;;5015078;28;20175;-76
2023/04/25 06:26:39;;;;;;;13.50;7.17;;;8.60;99.90;;;;;;5016507;28;20585;-78
2023/04/25 06:29:05;;;;;;;8.80;5.73;;;8.60;99.90;;;;;;5031942;28;20214;-78
2023/04/25 06:31:32;;;;;;;11.80;6.70;;;8.60;99.90;;;;;;5015080;28;20195;-77
2023/04/25 06:33:58;;;;;;;11.53;5.90;;;8.70;99.90;;;;;;5014247;28;20233;-77
2023/04/25 06:36:25;;;;;;;17.10;6.77;;;8.70;99.90;;;;;;5015344;28;20463;-78
2023/04/25 06:38:52;;;;;;;13.60;6.83;;;8.80;99.90;;;;;;5023157;28;20223;-78
2023/04/25 06:41:18;;;;;;;14.40;7.00;;;8.90;99.90;;;;;;5010348;28;20887;-78
2023/04/25 06:43:44;;;;;;;17.27;7.33;;;9.00;99.90;;;;;;5014106;28;20740;-78
2023/04/25 06:46:10;;;;;;;16.50;7.97;;;9.10;99.90;;;;;;5015464;28;20428;-78
2023/04/25 06:48:36;;;;;;;13.63;8.10;;;9.10;99.90;;;;;;5012542;28;20557;-77
2023/04/25 06:51:02;;;;;;;15.00;8.70;;;9.10;99.90;;;;;;5011242;28;20529;-78
2023/04/25 06:53:28;;;;;;;13.20;8.97;;;9.10;99.90;;;;;;5013304;28;20267;-78
2023/04/25 06:55:54;;;;;;;15.70;9.40;;;9.20;99.90;;;;;;5014810;28;20862;-78
2023/04/25 06:58:19;;;;;;;14.67;9.60;;;9.20;99.90;;;;;;5014517;28;20206;-77
2023/04/25 07:00:45;;;;;;;19.20;8.40;;;9.20;99.90;;;;;;5016156;28;20210;-76
2023/04/25 07:03:11;;;;;;;13.90;8.77;;;9.20;99.90;;;;;;5015689;28;20194;-78
2023/04/25 07:05:37;;;;;;;15.57;8.07;;;9.20;99.90;;;;;;5018393;28;20190;-78
2023/04/25 07:08:03;;;;;;;13.13;8.27;;;9.20;99.90;;;;;;5017648;28;21080;-78
2023/04/25 07:10:29;;;;;;;16.60;8.60;;;9.30;99.90;;;;;;5017555;28;20591;-78
2023/04/25 07:12:54;;;;;;;18.20;7.80;;;9.20;99.90;;;;;;5017363;28;20625;-77
2023/04/25 07:15:20;;;;;;;14.83;7.67;;;9.20;99.90;;;;;;5016151;28;20176;-77
2023/04/25 07:17:45;;;;;;;15.10;7.40;;;9.20;99.90;;;;;;5015433;28;20245;-77
2023/04/25 07:20:12;;;;;;;10.50;6.30;;;9.10;99.90;;;;;;5015247;28;20186;-78
2023/04/25 07:22:37;;;;;;;10.90;6.77;;;9.10;99.90;;;;;;4997436;28;20184;-78
2023/04/25 07:25:04;;;;;;;10.97;7.13;;;9.00;99.90;;;;;;5013531;28;20431;-77
2023/04/25 07:27:30;;;;;;;13.30;7.23;;;8.90;99.90;;;;;;4996911;28;20207;-78
2023/04/25 07:29:55;;;;;;;15.83;7.03;;;8.90;99.90;;;;;;4997754;28;20421;-78
2023/04/25 07:32:21;;;;;;;16.43;6.90;;;9.00;99.90;;;;;;4996414;28;20506;-78
2023/04/25 07:34:47;;;;;;;9.33;6.40;;;9.00;99.90;;;;;;5013017;28;20180;-78
2023/04/25 07:37:13;;;;;;;9.87;5.10;;;9.00;99.90;;;;;;5012685;28;20183;-77
2023/04/25 07:39:39;;;;;;;12.53;5.60;;;9.00;99.90;;;;;;4997438;28;20242;-77
2023/04/25 07:42:07;;;;;;;10.30;5.30;;;9.00;99.90;;;;;;5013251;28;20450;-78
2023/04/25 07:44:38;;;;;;;9.67;4.50;;;9.10;99.90;;;;;;5017280;28;20441;-78
2023/04/25 07:47:06;;;;;;;8.83;4.00;;;9.20;99.90;;;;;;5015261;28;20454;-77
2023/04/25 07:49:38;;;;;;;10.00;5.30;;;9.20;99.90;;;;;;5017593;28;20431;-77
2023/04/25 07:52:08;;;;;;;13.90;4.90;;;9.20;99.90;;;;;;5017727;28;20437;-77
2023/04/25 07:54:35;;;;;;;11.67;4.53;;;9.20;99.90;;;;;;5019435;28;20410;-78
2023/04/25 07:57:01;;;;;;;10.37;4.73;;;9.30;99.90;;;;;;5020204;28;20452;-78
2023/04/25 07:59:26;;;;;;;12.03;4.73;;;9.30;99.90;;;;;;5020041;28;20415;-78
2023/04/25 08:01:52;;;;;;;8.83;3.90;;;9.40;99.90;;;;;;5020670;28;20432;-78
2023/04/25 08:04:17;;;;;;;10.27;3.77;;;9.40;99.90;;;;;;5035768;28;20186;-78
2023/04/25 08:06:43;;;;;;;10.60;4.27;;;9.40;99.90;;;;;;5035816;28;20179;-77
2023/04/25 08:09:09;;;;;;;7.33;3.47;;;9.40;99.90;;;;;;5020852;28;20715;-78
2023/04/25 08:11:35;;;;;;;7.17;3.33;;;9.60;99.90;;;;;;5019831;28;20747;-78
2023/04/25 08:14:01;;;;;;;8.20;3.00;;;9.60;99.90;;;;;;5019209;28;20812;-78
2023/04/25 08:16:27;;;;;;;8.20;4.20;;;9.70;99.90;;;;;;5017903;28;20437;-78
2023/04/25 08:18:53;;;;;;;10.63;3.70;;;9.80;99.90;;;;;;5019130;28;20275;-78
2023/04/25 08:21:20;;;;;;;10.20;3.30;;;9.80;99.90;;;;;;5008828;28;20812;-78
2023/04/25 08:23:45;;;;;;;6.10;3.00;;;9.80;99.90;;;;;;4998996;28;20423;-78
2023/04/25 08:26:11;;;;;;;4.00;2.70;;;9.90;99.90;;;;;;5015175;28;20445;-78
2023/04/25 08:28:37;;;;;;;7.80;3.20;;;9.90;99.90;;;;;;4999656;28;20458;-78
2023/04/25 08:31:03;;;;;;;6.33;2.57;;;9.90;99.90;;;;;;5015087;28;20204;-78
2023/04/25 08:33:29;;;;;;;8.63;3.33;;;9.90;99.90;;;;;;5015365;28;20179;-77
2023/04/25 08:35:55;;;;;;;4.93;2.83;;;10.00;99.90;;;;;;4997412;28;20222;-78
2023/04/25 08:38:21;;;;;;;10.97;3.20;;;10.00;99.90;;;;;;5014334;28;20533;-77
2023/04/25 08:40:50;;;;;;;6.93;3.03;;;10.00;99.90;;;;;;5003548;28;20811;-78
2023/04/25 08:43:18;;;;;;;8.70;3.13;;;10.00;99.90;;;;;;5016645;28;20190;-78
2023/04/25 08:45:44;;;;;;;10.67;3.40;;;10.00;99.90;;;;;;5017832;28;20414;-78
2023/04/25 08:48:17;;;;;;;7.03;3.50;;;10.10;99.90;;;;;;5017567;28;20507;-77
2023/04/25 08:50:45;;;;;;;11.80;3.80;;;10.10;99.90;;;;;;5032866;28;20970;-76
2023/04/25 08:53:18;;;;;;;7.17;3.83;;;10.10;99.90;;;;;;5017638;28;20468;-78
2023/04/25 08:55:45;;;;;;;6.80;3.37;;;10.10;99.90;;;;;;5018072;28;20476;-77
2023/04/25 08:58:12;;;;;;;9.70;3.30;;;10.10;99.90;;;;;;5017579;28;20453;-77
2023/04/25 09:00:38;;;;;;;5.90;3.60;;;10.10;99.90;;;;;;5017958;28;20499;-77
2023/04/25 09:03:03;;;;;;;7.83;3.77;;;10.10;99.90;;;;;;5016731;28;20426;-76
2023/04/25 09:05:29;;;;;;;7.63;3.07;;;10.20;99.90;;;;;;5032433;28;20607;-77
2023/04/25 09:07:56;;;;;;;13.33;3.53;;;10.30;99.90;;;;;;5017115;28;20306;-77
2023/04/25 09:10:22;;;;;;;4.70;2.60;;;10.30;99.90;;;;;;5017182;28;20418;-77
2023/04/25 09:13:10;;;;;;;6.53;3.17;;;10.40;99.90;;;;;;5016593;28;20517;-75
2023/04/25 09:15:48;;;;;;;5.23;2.90;;;10.50;99.90;;;;;;5021822;28;20445;-76
2023/04/25 09:18:21;;;;;;;6.50;3.33;;;10.60;99.90;;;;;;5022590;28;20457;-78
2023/04/25 09:20:47;;;;;;;8.60;3.13;;;10.60;99.90;;;;;;5013423;28;20443;-78
2023/04/25 09:23:15;;;;;;;6.57;3.13;;;10.70;99.90;;;;;;4998289;28;20473;-78
2023/04/25 09:25:42;;;;;;;7.93;4.10;;;10.70;99.90;;;;;;4998193;28;20555;-77
2023/04/25 09:28:08;;;;;;;6.40;2.73;;;10.80;99.90;;;;;;4995032;28;20974;-77
2023/04/25 09:30:36;;;;;;;8.70;3.23;;;10.90;99.90;;;;;;4991324;28;20489;-77
2023/04/25 09:33:12;;;;;;;8.90;3.17;;;10.90;99.90;;;;;;4991343;28;20180;-77
2023/04/25 09:35:43;;;;;;;6.13;2.47;;;10.90;99.90;;;;;;5005270;28;20484;-77
2023/04/25 09:38:13;;;;;;;4.60;2.23;;;10.90;99.90;;;;;;4991084;28;20786;-76
2023/04/25 09:40:40;;;;;;;8.00;3.20;;;11.00;99.90;;;;;;4994272;28;20507;-76
2023/04/25 09:43:25;;;;;;;5.40;2.30;;;10.90;99.90;;;;;;5009331;28;20509;-77
2023/04/25 09:45:57;;;;;;;7.67;2.07;;;11.00;99.90;;;;;;5005303;28;20900;-77
2023/04/25 09:48:24;;;;;;;8.67;2.13;;;11.00;99.90;;;;;;5009117;28;20520;-77
2023/04/25 09:51:06;;;;;;;9.90;2.40;;;11.00;99.90;;;;;;5010502;28;20430;-76
2023/04/25 09:53:46;;;;;;;5.60;2.60;;;11.10;99.90;;;;;;5010574;28;20762;-77
2023/04/25 09:56:13;;;;;;;7.03;2.50;;;11.00;99.90;;;;;;5009368;28;20426;-76
2023/04/25 09:58:40;;;;;;;4.73;2.23;;;10.90;99.90;;;;;;5025559;28;20465;-77
2023/04/25 10:01:10;;;;;;;4.80;2.37;;;10.90;99.90;;;;;;5009243;28;20446;-76
2023/04/25 10:03:40;;;;;;;5.87;2.40;;;11.00;99.90;;;;;;5010279;28;20524;-77
2023/04/25 10:06:12;;;;;;;3.60;2.40;;;11.00;99.90;;;;;;5010405;28;20418;-77
2023/04/25 10:08:38;;;;;;;6.10;2.80;;;11.00;99.90;;;;;;5010198;28;20512;-77
2023/04/25 10:11:07;;;;;;;7.10;2.80;;;11.00;99.90;;;;;;5010034;28;20472;-76
2023/04/25 10:13:33;;;;;;;5.43;2.30;;;11.00;99.90;;;;;;5008842;28;20422;-76
2023/04/25 10:16:01;;;;;;;7.37;1.90;;;11.10;99.90;;;;;;5009959;28;20774;-77
2023/04/25 10:18:28;;;;;;;3.97;2.10;;;11.20;99.90;;;;;;5009328;28;20414;-76
2023/04/25 10:20:59;;;;;;;5.90;1.80;;;11.40;99.90;;;;;;5002162;28;21127;-76
2023/04/25 10:23:25;;;;;;;4.20;1.60;;;11.50;99.90;;;;;;4990292;28;20419;-76
2023/04/25 10:25:52;;;;;;;1.63;1.40;;;11.60;99.90;;;;;;5005517;28;20419;-77
2023/04/25 10:28:19;;;;;;;3.93;2.23;;;11.80;99.90;;;;;;4990323;28;20466;-77
2023/04/25 10:30:58;;;;;;;2.63;1.40;;;11.90;98.40;;;;;;4989984;28;20493;-77
2023/04/25 10:33:38;;;;;;;3.10;1.67;;;11.80;98.40;;;;;;4990066;28;20437;-77
2023/04/25 10:36:11;;;;;;;3.97;2.00;;;11.80;97.90;;;;;;4987664;28;20908;-78
2023/04/25 10:38:40;;;;;;;4.40;1.57;;;11.70;96.90;;;;;;4989911;28;20446;-78
2023/04/25 10:41:08;;;;;;;5.20;2.07;;;11.60;97.90;;;;;;4997088;28;21005;-77
2023/04/25 10:43:39;;;;;;;4.83;1.50;;;11.50;97.40;;;;;;5008397;28;20446;-76
2023/04/25 10:46:37;;;;;;;6.60;1.57;;;11.40;97.80;;;;;;5025024;28;20468;-76
2023/04/25 10:49:03;;;;;;;4.23;2.03;;;11.30;98.30;;;;;;4996532;28;20565;-76
2023/04/25 10:51:33;;;;;;;4.37;2.00;;;11.30;98.40;;;;;;5009395;28;20532;-77
2023/04/25 10:53:59;;;;;;;3.83;1.70;;;11.20;98.60;;;;;;5009417;28;20925;-77
2023/04/25 10:56:30;;;;;;;3.80;1.37;;;11.10;98.70;;;;;;5024692;28;20510;-78
2023/04/25 10:59:09;;;;;;;5.47;1.43;;;11.10;98.60;;;;;;5009645;28;20837;-77
2023/04/25 11:01:43;;;;;;;2.00;1.77;;;11.00;98.10;;;;;;5009344;28;20422;-76
2023/04/25 11:04:24;;;;;;;3.63;1.73;;;10.90;97.40;;;;;;5007834;28;20422;-77
2023/04/25 11:06:59;;;;;;;5.83;1.60;;;10.80;98.10;;;;;;5008984;28;20445;-76
2023/04/25 11:09:24;;;;;;;4.00;1.60;;;10.80;98.60;;;;;;5024300;28;20453;-76
2023/04/25 11:11:58;;;;;;;3.70;1.70;;;10.80;99.80;;;;;;5009232;28;20434;-77
2023/04/25 11:14:24;;;;;;;5.40;2.10;;;10.80;99.90;;;;;;5007606;28;20947;-77
2023/04/25 11:16:57;;;;;;;4.90;2.07;;;10.70;99.90;;;;;;5009147;28;20761;-76
2023/04/25 11:19:24;;;;;;;5.53;1.87;;;10.70;99.90;;;;;;5009010;28;20422;-77
2023/04/25 11:21:50;;;;;;;4.87;1.77;;;10.60;99.90;;;;;;4993672;28;20458;-76
2023/04/25 11:24:19;;;;;;;3.83;1.77;;;10.50;99.90;;;;;;4988017;28;20461;-76
2023/04/25 11:26:48;;;;;;;3.63;2.03;;;10.50;99.90;;;;;;4988506;28;20744;-77
2023/04/25 11:29:13;;;;;;;2.93;2.10;;;10.50;99.90;;;;;;4989518;28;20521;-76
2023/04/25 11:31:44;;;;;;;4.57;1.90;;;10.50;99.90;;;;;;4989169;28;20435;-76
2023/04/25 11:34:10;;;;;;;3.83;1.93;;;10.40;99.90;;;;;;4987861;28;20199;-76
2023/04/25 11:36:38;;;;;;;2.93;1.80;;;10.40;99.90;;;;;;4988633;28;20422;-77
2023/04/25 11:39:05;;;;;;;4.63;1.93;;;10.40;99.90;;;;;;5004229;28;20195;-77
2023/04/25 11:41:31;;;;;;;3.53;2.30;;;10.40;99.90;;;;;;4998763;28;20810;-76
2023/04/25 11:43:57;;;;;;;2.60;1.90;;;10.50;99.90;;;;;;5008729;28;20422;-77
2023/04/25 11:46:23;;;;;;;3.73;2.30;;;10.50;99.90;;;;;;5007549;28;20546;-76
2023/04/25 11:48:50;;;;;;;3.73;2.30;;;10.60;99.90;;;;;;5008656;28;20242;-76
2023/04/25 11:51:15;;;;;;;3.83;1.70;;;10.60;99.90;;;;;;5008239;28;20212;-77
2023/04/25 11:53:44;;;;;;;4.27;2.00;;;10.60;99.90;;;;;;5009746;28;20414;-77
2023/04/25 11:56:13;;;;;;;6.93;2.10;;;10.70;99.90;;;;;;5010830;28;20289;-76
2023/04/25 11:59:02;;;;;;;2.60;1.77;;;10.90;99.90;;;;;;5009130;28;20454;-77
2023/04/25 12:01:39;;;;;;;4.03;1.80;;;10.90;99.90;;;;;;5008492;28;20426;-77
2023/04/25 12:04:20;;;;;;;1.90;1.40;;;11.00;99.90;;;;;;5008568;28;20425;-76
2023/04/25 12:06:50;;;;;;;3.60;1.20;;;11.10;99.90;;;;;;5007162;28;20768;-77
2023/04/25 12:09:30;;;;;;;2.77;1.43;;;11.30;99.90;;;;;;5023719;28;20834;-76
2023/04/25 12:11:58;;;;;;;3.10;1.23;;;11.50;99.90;;;;;;5007293;28;20997;-77
2023/04/25 12:14:29;;;;;;;1.73;1.10;;;11.50;99.90;;;;;;5006907;28;20923;-76
2023/04/25 12:16:57;;;;;;;1.37;0.90;;;11.60;99.40;;;;;;5008407;28;20457;-76
2023/04/25 12:19:23;;;;;;;4.90;1.60;;;11.60;98.80;;;;;;4990777;28;20426;-76
2023/04/25 12:21:50;;;;;;;2.37;1.20;;;11.70;97.90;;;;;;5008430;28;20438;-76
2023/04/25 12:24:18;;;;;;;2.60;1.10;;;11.80;99.30;;;;;;4988806;28;20422;-77
2023/04/25 12:26:50;;;;;;;3.57;1.10;;;11.90;97.60;;;;;;4988646;28;20423;-77
2023/04/25 12:29:23;;;;;;;3.37;1.10;;;12.00;97.30;;;;;;4989137;28;20454;-76
2023/04/25 12:31:51;;;;;;;5.40;1.30;;;12.10;97.60;;;;;;5003813;28;20434;-76
2023/04/25 12:34:17;;;;;;;2.20;1.17;;;12.10;96.70;;;;;;5003914;28;20449;-76
2023/04/25 12:36:43;;;;;;;2.00;1.00;;;12.10;97.00;;;;;;4987508;28;20419;-76
2023/04/25 12:39:15;;;;;;;3.17;1.23;;;12.00;96.30;;;;;;4990855;28;20436;-76
2023/04/25 12:41:41;;;;;;;4.43;1.47;;;11.90;95.90;;;;;;5004308;28;20230;-76
2023/04/25 12:44:06;;;;;;;3.43;1.50;;;11.80;96.60;;;;;;5011772;28;20414;-76
2023/04/25 12:46:32;;;;;;;3.83;1.43;;;11.80;97.80;;;;;;5011829;28;20262;-77
2023/04/25 12:48:58;;;;;;;2.40;1.00;;;11.80;97.90;;;;;;5010439;28;20321;-76
2023/04/25 12:51:24;;;;;;;8.03;1.93;;;11.90;97.70;;;;;;5011597;28;20195;-76